KSLC/SLC METAR and TAF weather

Enter ICAO airport designator
Station Type Date Time Source
KSLC METAR 2022/01/23 11:54 UTC NOAA

KSLC 231154Z 14004KT 10SM CLR M05/M07 A3041 RMK AO2 SLP319 T10501072 11028 21056 58006


Station Type Date Time Source
KSLC Decoded METAR 2022/01/23 11:54 UTC NOAA

SALT LAKE CITY INTERNATIONAL AIRPORT , UT, United States (KSLC) 40-47N 111-58W 1286M
Jan 23, 2022 - 06:54 AM EST / 2022.01.23 1154 UTC
Wind: from the SE (140 degrees) at 5 MPH (4 KT):0
Visibility: 10 mile(s):0
Sky conditions: clear
Temperature: 23.0 F (-5.0 C)
Windchill: 15 F (-9 C):1
Dew Point: 19.0 F (-7.2 C)
Relative Humidity: 84%
Pressure (altimeter): 30.41 in. Hg (1029 hPa)
Pressure tendency: 0.02 inches (0.6 hPa) lower than three hours ago
ob: KSLC 231154Z 14004KT 10SM CLR M05/M07 A3041 RMK AO2 SLP319 T10501072 11028 21056 58006
cycle: 12

Station Type Date Time Source
KSLC TAF 2022/01/23 12:45 UTC NOAA

TAF KSLC 231142Z 2312/2418 15004KT P6SM FEW025
FM231800 33006KT P6SM FEW250
FM240400 15004KT P6SM FEW250

Example: see airport list